createdAt,value
2017-11-01T00:00:44.711Z,1022.38
2017-11-01T00:01:44.698Z,1022.42
2017-11-01T00:02:44.683Z,1022.39
2017-11-01T00:03:44.668Z,1022.42
2017-11-01T00:04:44.654Z,1022.40
2017-11-01T00:05:44.641Z,1022.41
2017-11-01T00:06:44.624Z,1022.40
2017-11-01T00:07:44.610Z,1022.42
2017-11-01T00:08:44.597Z,1022.43
2017-11-01T00:09:44.583Z,1022.44
2017-11-01T00:10:44.568Z,1022.48
2017-11-01T00:11:44.554Z,1022.48
2017-11-01T00:12:44.539Z,1022.48
2017-11-01T00:13:44.525Z,1022.47
2017-11-01T00:14:44.511Z,1022.46
2017-11-01T00:15:44.501Z,1022.45
2017-11-01T00:16:44.482Z,1022.46
2017-11-01T00:17:44.467Z,1022.47
2017-11-01T00:18:44.453Z,1022.44
2017-11-01T00:19:44.438Z,1022.42
2017-11-01T00:20:44.423Z,1022.46
2017-11-01T00:21:44.409Z,1022.43
2017-11-01T00:22:44.397Z,1022.44
2017-11-01T00:23:44.380Z,1022.42
2017-11-01T00:24:44.365Z,1022.45
2017-11-01T00:25:44.353Z,1022.45
2017-11-01T00:26:44.338Z,1022.43
2017-11-01T00:27:44.323Z,1022.40
2017-11-01T00:28:44.309Z,1022.37
2017-11-01T00:29:44.301Z,1022.33
2017-11-01T00:30:44.280Z,1022.30
2017-11-01T00:31:44.265Z,1022.27
2017-11-01T00:32:44.251Z,1022.26
2017-11-01T00:33:44.243Z,1022.28
2017-11-01T00:34:44.223Z,1022.29
2017-11-01T00:35:44.208Z,1022.27
2017-11-01T00:36:44.203Z,1022.32
2017-11-01T00:37:44.179Z,1022.29
2017-11-01T00:38:44.165Z,1022.23
2017-11-01T00:39:44.149Z,1022.23
2017-11-01T00:40:44.136Z,1022.23
2017-11-01T00:41:44.122Z,1022.26
2017-11-01T00:42:44.108Z,1022.26
2017-11-01T00:43:44.091Z,1022.23
2017-11-01T00:44:44.079Z,1022.22
2017-11-01T00:45:44.064Z,1022.26
2017-11-01T00:46:44.050Z,1022.23
2017-11-01T00:47:44.035Z,1022.21
2017-11-01T00:48:44.021Z,1022.22
2017-11-01T00:49:44.006Z,1022.20
2017-11-01T00:50:43.992Z,1022.25
2017-11-01T00:51:43.977Z,1022.27
2017-11-01T00:52:43.963Z,1022.30
2017-11-01T00:53:43.949Z,1022.27
2017-11-01T00:54:43.935Z,1022.28
2017-11-01T00:55:43.919Z,1022.27
2017-11-01T00:56:43.904Z,1022.31
2017-11-01T00:57:43.892Z,1022.28
2017-11-01T00:58:43.877Z,1022.31
2017-11-01T00:59:43.862Z,1022.29
2017-11-01T01:00:43.861Z,1022.26
2017-11-01T01:01:43.834Z,1022.32
2017-11-01T01:02:43.819Z,1022.30
2017-11-01T01:03:43.804Z,1022.29
2017-11-01T01:04:43.790Z,1022.34
2017-11-01T01:05:43.779Z,1022.32
2017-11-01T01:06:43.762Z,1022.34
2017-11-01T01:07:43.745Z,1022.30
2017-11-01T01:08:43.732Z,1022.36
2017-11-01T01:09:43.718Z,1022.35
2017-11-01T01:10:43.704Z,1022.32
2017-11-01T01:11:43.689Z,1022.29
2017-11-01T01:12:43.674Z,1022.26
2017-11-01T01:13:43.660Z,1022.27
2017-11-01T01:14:43.655Z,1022.32
2017-11-01T01:15:43.631Z,1022.29
2017-11-01T01:16:43.617Z,1022.35
2017-11-01T01:17:43.603Z,1022.31
2017-11-01T01:18:43.589Z,1022.27
2017-11-01T01:19:43.573Z,1022.24
2017-11-01T01:20:43.559Z,1022.21
2017-11-01T01:21:43.545Z,1022.18
2017-11-01T01:22:43.531Z,1022.19
2017-11-01T01:23:43.516Z,1022.21
2017-11-01T01:24:43.501Z,1022.24
2017-11-01T01:25:43.487Z,1022.23
2017-11-01T01:26:43.474Z,1022.22
2017-11-01T01:27:43.458Z,1022.21
2017-11-01T01:28:43.444Z,1022.16
2017-11-01T01:29:43.429Z,1022.18
2017-11-01T01:30:43.415Z,1022.21
2017-11-01T01:31:43.401Z,1022.20
2017-11-01T01:32:43.386Z,1022.22
2017-11-01T01:33:43.372Z,1022.17
2017-11-01T01:34:43.358Z,1022.13
2017-11-01T01:35:43.343Z,1022.13
2017-11-01T01:36:43.328Z,1022.16
2017-11-01T01:37:43.314Z,1022.17
2017-11-01T01:38:43.300Z,1022.17
2017-11-01T01:39:43.290Z,1022.13
2017-11-01T01:40:43.270Z,1022.10
2017-11-01T01:41:43.256Z,1022.09
2017-11-01T01:42:43.244Z,1022.10
2017-11-01T01:43:43.226Z,1022.11
2017-11-01T01:44:43.212Z,1022.12
2017-11-01T01:45:43.199Z,1022.12
2017-11-01T01:46:43.185Z,1022.15
2017-11-01T01:47:43.170Z,1022.10
2017-11-01T01:48:43.155Z,1022.09
2017-11-01T01:49:43.140Z,1022.11
2017-11-01T01:50:43.127Z,1022.14
2017-11-01T01:51:43.111Z,1022.16
2017-11-01T01:52:43.096Z,1022.14
2017-11-01T01:53:43.083Z,1022.15
2017-11-01T01:54:43.069Z,1022.17
2017-11-01T01:55:43.053Z,1022.13
2017-11-01T01:56:43.039Z,1022.15
2017-11-01T01:57:43.025Z,1022.16
2017-11-01T01:58:43.011Z,1022.19
2017-11-01T01:59:42.996Z,1022.17
2017-11-01T02:00:42.982Z,1022.18
2017-11-01T02:01:42.974Z,1022.20
2017-11-01T02:02:42.954Z,1022.23
2017-11-01T02:03:42.937Z,1022.24
2017-11-01T02:04:42.925Z,1022.23
2017-11-01T02:05:42.910Z,1022.22
2017-11-01T02:06:42.895Z,1022.21
2017-11-01T02:07:42.883Z,1022.21
2017-11-01T02:08:42.867Z,1022.28
2017-11-01T02:09:42.853Z,1022.27
2017-11-01T02:10:42.842Z,1022.25
2017-11-01T02:11:42.823Z,1022.27
2017-11-01T02:12:42.814Z,1022.25
2017-11-01T02:13:42.794Z,1022.24
2017-11-01T02:14:42.780Z,1022.22
2017-11-01T02:15:42.764Z,1022.21
2017-11-01T02:16:42.751Z,1022.22
2017-11-01T02:17:42.736Z,1022.23
2017-11-01T02:18:42.722Z,1022.21
2017-11-01T02:19:42.706Z,1022.23
2017-11-01T02:20:42.693Z,1022.11
2017-11-01T02:21:42.678Z,1022.19
2017-11-01T02:22:42.664Z,1022.18
2017-11-01T02:23:42.649Z,1022.18
2017-11-01T02:24:42.635Z,1022.20
2017-11-01T02:25:42.620Z,1022.18
2017-11-01T02:26:42.607Z,1022.22
2017-11-01T02:27:42.590Z,1022.19
2017-11-01T02:28:42.581Z,1022.16
2017-11-01T02:29:42.563Z,1022.13
2017-11-01T02:30:42.550Z,1022.11
2017-11-01T02:31:42.534Z,1022.15
2017-11-01T02:32:42.519Z,1022.13
2017-11-01T02:33:42.506Z,1022.17
2017-11-01T02:34:42.491Z,1022.14
2017-11-01T02:35:42.476Z,1022.16
2017-11-01T02:36:42.461Z,1022.16
2017-11-01T02:37:42.448Z,1022.17
2017-11-01T02:38:42.433Z,1022.15
2017-11-01T02:39:42.418Z,1022.16
2017-11-01T02:40:42.407Z,1022.16
2017-11-01T02:41:42.390Z,1022.15
2017-11-01T02:42:42.376Z,1022.16
2017-11-01T02:43:42.360Z,1022.16
2017-11-01T02:44:42.346Z,1022.19
2017-11-01T02:45:42.332Z,1022.19
2017-11-01T02:46:42.318Z,1022.17
2017-11-01T02:47:42.310Z,1022.15
2017-11-01T02:48:42.287Z,1022.10
2017-11-01T02:49:42.275Z,1022.05
2017-11-01T02:50:42.260Z,1022.10
2017-11-01T02:51:42.245Z,1022.09
2017-11-01T02:52:42.231Z,1022.07
2017-11-01T02:53:42.216Z,1022.06
2017-11-01T02:54:42.202Z,1022.03
2017-11-01T02:55:42.186Z,1022.05
2017-11-01T02:56:42.173Z,1022.09
2017-11-01T02:57:42.158Z,1022.08
2017-11-01T02:58:42.182Z,1022.05
2017-11-01T02:59:42.128Z,1022.08
2017-11-01T03:00:42.115Z,1022.09
2017-11-01T03:01:42.101Z,1022.06
2017-11-01T03:02:42.094Z,1022.06
2017-11-01T03:03:42.072Z,1022.09
2017-11-01T03:04:42.056Z,1022.10
2017-11-01T03:05:42.043Z,1022.09
2017-11-01T03:06:42.028Z,1022.10
2017-11-01T03:07:42.014Z,1022.06
2017-11-01T03:08:42.000Z,1022.07
2017-11-01T03:09:41.985Z,1022.07
2017-11-01T03:10:41.971Z,1022.07
2017-11-01T03:11:41.956Z,1022.04
2017-11-01T03:12:41.944Z,1022.02
2017-11-01T03:13:41.931Z,1022.01
2017-11-01T03:14:41.914Z,1022.03
2017-11-01T03:15:41.898Z,1022.01
2017-11-01T03:16:41.887Z,1022.00
2017-11-01T03:17:41.869Z,1022.05
2017-11-01T03:18:41.856Z,1022.00
2017-11-01T03:19:41.841Z,1022.04
2017-11-01T03:20:41.826Z,1022.02
2017-11-01T03:21:41.811Z,1022.02
2017-11-01T03:22:41.798Z,1022.07
2017-11-01T03:23:41.782Z,1022.02
2017-11-01T03:24:41.768Z,1022.02
2017-11-01T03:25:41.755Z,1022.01
2017-11-01T03:26:41.740Z,1021.99
2017-11-01T03:27:41.725Z,1021.99
2017-11-01T03:28:41.710Z,1022.02
2017-11-01T03:29:41.696Z,1022.02
2017-11-01T03:30:41.683Z,1022.03
2017-11-01T03:31:41.667Z,1022.02
2017-11-01T03:32:41.653Z,1022.05
2017-11-01T03:33:41.638Z,1021.97
2017-11-01T03:34:41.624Z,1021.96
2017-11-01T03:35:41.609Z,1021.97
2017-11-01T03:36:41.594Z,1021.94
2017-11-01T03:37:41.580Z,1021.95
2017-11-01T03:38:41.574Z,1021.97
2017-11-01T03:39:41.551Z,1021.93
2017-11-01T03:40:41.536Z,1021.90
2017-11-01T03:41:41.523Z,1021.86
2017-11-01T03:42:41.508Z,1021.87
2017-11-01T03:43:41.494Z,1021.83
2017-11-01T03:44:41.482Z,1021.82
2017-11-01T03:45:41.464Z,1021.80
2017-11-01T03:46:41.451Z,1021.82
2017-11-01T03:47:41.435Z,1021.83
2017-11-01T03:48:41.421Z,1021.83
2017-11-01T03:49:41.409Z,1021.82
2017-11-01T03:50:41.392Z,1021.79
2017-11-01T03:51:41.377Z,1021.83
2017-11-01T03:52:41.364Z,1021.85
2017-11-01T03:53:41.349Z,1021.83
2017-11-01T03:54:41.335Z,1021.81
2017-11-01T03:55:41.320Z,1021.79
2017-11-01T03:56:41.305Z,1021.79
2017-11-01T03:57:41.291Z,1021.78
2017-11-01T03:58:41.278Z,1021.83
2017-11-01T03:59:41.263Z,1021.83
2017-11-01T04:00:41.249Z,1021.83
2017-11-01T04:01:41.234Z,1021.81
2017-11-01T04:02:41.220Z,1021.80
2017-11-01T04:03:41.205Z,1021.81
2017-11-01T04:04:41.191Z,1021.81
2017-11-01T04:05:41.177Z,1021.85
2017-11-01T04:06:41.162Z,1021.85
2017-11-01T04:07:41.148Z,1021.80
2017-11-01T04:08:41.134Z,1021.81
2017-11-01T04:09:41.120Z,1021.77
2017-11-01T04:10:41.106Z,1021.81
2017-11-01T04:11:41.092Z,1021.79
2017-11-01T04:12:41.076Z,1021.84
2017-11-01T04:13:41.063Z,1021.81
2017-11-01T04:14:41.049Z,1021.77
2017-11-01T04:15:41.034Z,1021.82
2017-11-01T04:16:41.020Z,1021.81
2017-11-01T04:17:41.006Z,1021.80
2017-11-01T04:18:40.992Z,1021.77
2017-11-01T04:19:40.976Z,1021.73
2017-11-01T04:20:40.962Z,1021.70
2017-11-01T04:21:40.948Z,1021.74
2017-11-01T04:22:40.934Z,1021.71
2017-11-01T04:23:40.920Z,1021.68
2017-11-01T04:24:40.909Z,1021.67
2017-11-01T04:25:40.891Z,1021.67
2017-11-01T04:26:40.928Z,1021.67
2017-11-01T04:27:40.871Z,1021.62
2017-11-01T04:28:40.850Z,1021.60
2017-11-01T04:29:40.834Z,1021.63
2017-11-01T04:30:40.822Z,1021.63
2017-11-01T04:31:40.806Z,1021.66
2017-11-01T04:32:40.792Z,1021.67
2017-11-01T04:33:40.779Z,1021.69
2017-11-01T04:34:40.771Z,1021.72
2017-11-01T04:35:40.748Z,1021.71
2017-11-01T04:36:40.736Z,1021.70
2017-11-01T04:37:40.721Z,1021.76
2017-11-01T04:38:40.708Z,1021.72
2017-11-01T04:39:40.693Z,1021.70
2017-11-01T04:40:40.679Z,1021.71
2017-11-01T04:41:40.667Z,1021.70
2017-11-01T04:42:40.650Z,1021.71
2017-11-01T04:43:40.636Z,1021.72
2017-11-01T04:44:40.622Z,1021.73
2017-11-01T04:45:40.608Z,1021.75
2017-11-01T04:46:40.594Z,1021.72
2017-11-01T04:47:40.579Z,1021.71
2017-11-01T04:48:40.565Z,1021.70
2017-11-01T04:49:40.554Z,1021.70
2017-11-01T04:50:40.536Z,1021.68
2017-11-01T04:51:40.526Z,1021.68
2017-11-01T04:52:40.508Z,1021.71
2017-11-01T04:53:40.496Z,1021.69
2017-11-01T04:54:40.480Z,1021.69
2017-11-01T04:55:40.466Z,1021.71
2017-11-01T04:56:40.451Z,1021.68
2017-11-01T04:57:40.437Z,1021.66
2017-11-01T04:58:40.423Z,1021.70
2017-11-01T04:59:40.409Z,1021.71
2017-11-01T05:00:40.395Z,1021.71
2017-11-01T05:01:40.386Z,1021.75
2017-11-01T05:02:40.366Z,1021.74
2017-11-01T05:03:40.352Z,1021.75
2017-11-01T05:04:40.338Z,1021.75
2017-11-01T05:05:40.326Z,1021.79
2017-11-01T05:06:40.310Z,1021.81
2017-11-01T05:07:40.300Z,1021.84
2017-11-01T05:08:40.281Z,1021.86
2017-11-01T05:09:40.267Z,1021.85
2017-11-01T05:10:40.253Z,1021.85
2017-11-01T05:11:40.239Z,1021.84
2017-11-01T05:12:40.224Z,1021.82
2017-11-01T05:13:40.210Z,1021.83
2017-11-01T05:14:40.196Z,1021.81
2017-11-01T05:15:40.181Z,1021.79
2017-11-01T05:16:40.167Z,1021.83
2017-11-01T05:17:40.154Z,1021.85
2017-11-01T05:18:40.140Z,1021.83
2017-11-01T05:19:40.125Z,1021.87
2017-11-01T05:20:40.112Z,1021.89
2017-11-01T05:21:40.097Z,1021.83
2017-11-01T05:22:40.083Z,1021.83
2017-11-01T05:23:40.068Z,1021.83
2017-11-01T05:24:40.071Z,1021.81
2017-11-01T05:25:40.040Z,1021.80
2017-11-01T05:26:40.028Z,1021.77
2017-11-01T05:27:40.011Z,1021.80
2017-11-01T05:28:39.997Z,1021.77
2017-11-01T05:29:39.984Z,1021.82
2017-11-01T05:30:39.968Z,1021.81
2017-11-01T05:31:39.955Z,1021.81
2017-11-01T05:32:39.940Z,1021.80
2017-11-01T05:33:39.928Z,1021.83
2017-11-01T05:34:39.913Z,1021.84
2017-11-01T05:35:39.898Z,1021.82
2017-11-01T05:36:39.884Z,1021.79
2017-11-01T05:37:39.870Z,1021.80
2017-11-01T05:38:39.856Z,1021.83
2017-11-01T05:39:39.841Z,1021.74
2017-11-01T05:40:39.827Z,1021.75
2017-11-01T05:41:39.813Z,1021.78
2017-11-01T05:42:39.799Z,1021.80
2017-11-01T05:43:39.784Z,1021.81
2017-11-01T05:44:39.770Z,1021.85
2017-11-01T05:45:39.756Z,1021.84
2017-11-01T05:46:39.743Z,1021.86
2017-11-01T05:47:39.727Z,1021.85
2017-11-01T05:48:39.713Z,1021.86
2017-11-01T05:49:39.700Z,1021.85
2017-11-01T05:50:39.686Z,1021.87
2017-11-01T05:51:39.671Z,1021.91
2017-11-01T05:52:39.657Z,1021.90
2017-11-01T05:53:39.646Z,1021.89
2017-11-01T05:54:39.629Z,1021.91
2017-11-01T05:55:39.614Z,1021.94
2017-11-01T05:56:39.600Z,1021.92
2017-11-01T05:57:39.586Z,1021.89
2017-11-01T05:58:39.573Z,1021.89
2017-11-01T05:59:39.562Z,1021.89
2017-11-01T06:00:39.544Z,1021.79
2017-11-01T06:01:39.530Z,1021.84
2017-11-01T06:02:39.519Z,1021.81
2017-11-01T06:03:39.500Z,1021.76
2017-11-01T06:04:39.486Z,1021.76
2017-11-01T06:05:39.473Z,1021.82
2017-11-01T06:06:39.459Z,1021.85
2017-11-01T06:07:39.443Z,1021.88
2017-11-01T06:08:39.429Z,1021.88
2017-11-01T06:09:39.417Z,1021.85
2017-11-01T06:10:39.402Z,1021.84
2017-11-01T06:11:39.388Z,1021.89
2017-11-01T06:12:39.373Z,1021.88
2017-11-01T06:13:39.361Z,1021.88
2017-11-01T06:14:39.345Z,1021.93
2017-11-01T06:15:39.330Z,1021.96
2017-11-01T06:16:39.317Z,1021.96
2017-11-01T06:17:39.302Z,1022.00
2017-11-01T06:18:39.290Z,1022.02
2017-11-01T06:19:39.274Z,1021.99
2017-11-01T06:20:39.260Z,1022.00
2017-11-01T06:21:39.245Z,1022.00
2017-11-01T06:22:39.232Z,1021.99
2017-11-01T06:23:39.218Z,1022.02
2017-11-01T06:24:39.205Z,1022.03
2017-11-01T06:25:39.189Z,1022.03
2017-11-01T06:26:39.176Z,1022.03
2017-11-01T06:27:39.160Z,1022.07
2017-11-01T06:28:39.146Z,1022.01
2017-11-01T06:29:39.133Z,1022.03
2017-11-01T06:30:39.118Z,1022.09
2017-11-01T06:31:39.104Z,1022.06
2017-11-01T06:32:39.090Z,1022.09
2017-11-01T06:33:39.074Z,1022.11
2017-11-01T06:34:39.062Z,1022.14
2017-11-01T06:35:39.047Z,1022.17
2017-11-01T06:36:39.035Z,1022.20
2017-11-01T06:37:39.020Z,1022.24
2017-11-01T06:38:39.006Z,1022.26
2017-11-01T06:39:38.989Z,1022.30
2017-11-01T06:40:38.976Z,1022.35
2017-11-01T06:41:38.963Z,1022.36
2017-11-01T06:42:38.948Z,1022.41
2017-11-01T06:43:38.933Z,1022.41
2017-11-01T06:44:38.919Z,1022.41
2017-11-01T06:45:38.908Z,1022.46
2017-11-01T06:46:38.891Z,1022.52
2017-11-01T06:47:38.877Z,1022.53
2017-11-01T06:48:38.863Z,1022.55
2017-11-01T06:49:38.849Z,1022.57
2017-11-01T06:50:38.848Z,1022.59
2017-11-01T06:51:38.821Z,1022.61
2017-11-01T06:52:38.807Z,1022.62
2017-11-01T06:53:38.793Z,1022.63
2017-11-01T06:54:38.778Z,1022.66
2017-11-01T06:55:38.766Z,1022.62
2017-11-01T06:56:38.757Z,1022.62
2017-11-01T06:57:38.736Z,1022.68
2017-11-01T06:58:38.727Z,1022.65
2017-11-01T06:59:38.706Z,1022.66
2017-11-01T07:00:38.697Z,1022.63
2017-11-01T07:01:38.678Z,1022.66
2017-11-01T07:02:38.665Z,1022.68
2017-11-01T07:03:38.650Z,1022.67
2017-11-01T07:04:38.636Z,1022.63
2017-11-01T07:05:38.622Z,1022.65
2017-11-01T07:06:38.609Z,1022.62
2017-11-01T07:07:38.596Z,1022.68
2017-11-01T07:08:38.579Z,1022.69
2017-11-01T07:09:38.566Z,1022.68
2017-11-01T07:10:38.551Z,1022.67
2017-11-01T07:11:38.536Z,1022.67
2017-11-01T07:12:38.523Z,1022.67
2017-11-01T07:13:38.509Z,1022.66
2017-11-01T07:14:38.494Z,1022.69
2017-11-01T07:15:38.480Z,1022.68
2017-11-01T07:16:38.466Z,1022.66
2017-11-01T07:17:38.453Z,1022.67
2017-11-01T07:18:38.438Z,1022.65
2017-11-01T07:19:38.427Z,1022.66
2017-11-01T07:20:38.410Z,1022.65
2017-11-01T07:21:38.395Z,1022.72
2017-11-01T07:22:38.381Z,1022.66
2017-11-01T07:23:38.366Z,1022.68
2017-11-01T07:24:38.356Z,1022.67
2017-11-01T07:25:38.339Z,1022.66
2017-11-01T07:26:38.325Z,1022.67
2017-11-01T07:27:38.310Z,1022.66
2017-11-01T07:28:38.296Z,1022.67
2017-11-01T07:29:38.282Z,1022.66
2017-11-01T07:30:38.267Z,1022.66
2017-11-01T07:31:38.254Z,1022.66
2017-11-01T07:32:38.239Z,1022.71
2017-11-01T07:33:38.226Z,1022.72
2017-11-01T07:34:38.212Z,1022.72
2017-11-01T07:35:38.197Z,1022.76
2017-11-01T07:36:38.184Z,1022.80
2017-11-01T07:37:38.169Z,1022.83
2017-11-01T07:38:38.154Z,1022.82
2017-11-01T07:39:38.140Z,1022.87
2017-11-01T07:40:38.125Z,1022.83
2017-11-01T07:41:38.112Z,1022.83
2017-11-01T07:42:38.097Z,1022.79
2017-11-01T07:43:38.084Z,1022.82
2017-11-01T07:44:38.070Z,1022.80
2017-11-01T07:45:38.056Z,1022.79
2017-11-01T07:46:38.044Z,1022.77
2017-11-01T07:47:38.027Z,1022.78
2017-11-01T07:48:38.014Z,1022.78
2017-11-01T07:49:37.999Z,1022.75
2017-11-01T07:50:37.985Z,1022.75
2017-11-01T07:51:37.970Z,1022.75
2017-11-01T07:52:37.956Z,1022.71
2017-11-01T07:53:37.943Z,1022.71
2017-11-01T07:54:37.928Z,1022.72
2017-11-01T07:55:37.914Z,1022.69
2017-11-01T07:56:37.900Z,1022.72
2017-11-01T07:57:37.886Z,1022.72
2017-11-01T07:58:37.871Z,1022.70
2017-11-01T07:59:37.857Z,1022.70
2017-11-01T08:00:37.842Z,1022.69
2017-11-01T08:01:37.833Z,1022.72
2017-11-01T08:02:37.816Z,1022.72
2017-11-01T08:03:37.800Z,1022.75
2017-11-01T08:04:37.786Z,1022.75
2017-11-01T08:05:37.773Z,1022.76
2017-11-01T08:06:37.758Z,1022.76
2017-11-01T08:07:37.744Z,1022.76
2017-11-01T08:08:37.730Z,1022.74
2017-11-01T08:09:37.716Z,1022.76
2017-11-01T08:10:37.701Z,1022.78
2017-11-01T08:11:37.686Z,1022.78
2017-11-01T08:12:37.673Z,1022.71
2017-11-01T08:13:37.660Z,1022.70
2017-11-01T08:14:37.647Z,1022.65
2017-11-01T08:15:37.630Z,1022.64
2017-11-01T08:16:37.619Z,1022.63
2017-11-01T08:17:37.613Z,1022.64
2017-11-01T08:18:37.590Z,1022.58
2017-11-01T08:19:37.578Z,1022.56
2017-11-01T08:20:37.561Z,1022.57
2017-11-01T08:21:37.547Z,1022.58
2017-11-01T08:22:37.533Z,1022.60
2017-11-01T08:23:37.530Z,1022.63
2017-11-01T08:24:37.504Z,1022.63
2017-11-01T08:25:37.491Z,1022.63
2017-11-01T08:26:37.476Z,1022.60
2017-11-01T08:27:37.461Z,1022.54
2017-11-01T08:28:37.448Z,1022.57
2017-11-01T08:29:37.434Z,1022.53
2017-11-01T08:30:37.420Z,1022.51
2017-11-01T08:31:37.406Z,1022.46
2017-11-01T08:32:37.392Z,1022.44
2017-11-01T08:33:37.378Z,1022.41
2017-11-01T08:34:37.364Z,1022.39
2017-11-01T08:35:37.349Z,1022.41
2017-11-01T08:36:37.336Z,1022.41
2017-11-01T08:37:37.321Z,1022.39
2017-11-01T08:38:37.308Z,1022.45
2017-11-01T08:39:37.293Z,1022.45
2017-11-01T08:40:37.279Z,1022.43
2017-11-01T08:41:37.265Z,1022.37
2017-11-01T08:42:37.252Z,1022.34
2017-11-01T08:43:37.237Z,1022.34
2017-11-01T08:44:37.223Z,1022.32
2017-11-01T08:45:37.209Z,1022.36
2017-11-01T08:46:37.194Z,1022.42
2017-11-01T08:47:37.181Z,1022.40
2017-11-01T08:48:37.167Z,1022.38
2017-11-01T08:49:37.152Z,1022.36
2017-11-01T08:50:37.139Z,1022.37
2017-11-01T08:51:37.124Z,1022.38
2017-11-01T08:52:37.111Z,1022.39
2017-11-01T08:53:37.097Z,1022.41
2017-11-01T08:54:37.083Z,1022.38
2017-11-01T08:55:37.069Z,1022.37
2017-11-01T08:56:37.056Z,1022.41
2017-11-01T08:57:37.041Z,1022.35
2017-11-01T08:58:37.027Z,1022.33
2017-11-01T08:59:37.012Z,1022.34
2017-11-01T09:00:36.998Z,1022.36
2017-11-01T09:01:36.984Z,1022.41
2017-11-01T09:02:36.972Z,1022.44
2017-11-01T09:03:36.955Z,1022.43
2017-11-01T09:04:36.951Z,1022.43
2017-11-01T09:05:36.927Z,1022.43
2017-11-01T09:06:36.914Z,1022.46
2017-11-01T09:07:36.910Z,1022.43
2017-11-01T09:08:36.886Z,1022.41
2017-11-01T09:09:36.872Z,1022.41
2017-11-01T09:10:36.858Z,1022.39
2017-11-01T09:11:36.845Z,1022.36
2017-11-01T09:12:36.830Z,1022.39
2017-11-01T09:13:36.817Z,1022.38
2017-11-01T09:14:36.803Z,1022.39
2017-11-01T09:15:36.787Z,1022.37
2017-11-01T09:16:36.773Z,1022.34
2017-11-01T09:17:36.760Z,1022.40
2017-11-01T09:18:36.747Z,1022.44
2017-11-01T09:19:36.732Z,1022.48
2017-11-01T09:20:36.718Z,1022.49
2017-11-01T09:21:36.704Z,1022.55
2017-11-01T09:22:36.691Z,1022.56
2017-11-01T09:23:36.676Z,1022.60
2017-11-01T09:24:36.663Z,1022.59
2017-11-01T09:25:36.649Z,1022.61
2017-11-01T09:26:36.635Z,1022.62
2017-11-01T09:27:36.622Z,1022.58
2017-11-01T09:28:36.608Z,1022.57
2017-11-01T09:29:36.593Z,1022.64
2017-11-01T09:30:36.580Z,1022.60
2017-11-01T09:31:36.564Z,1022.58
2017-11-01T09:32:36.552Z,1022.54
2017-11-01T09:33:36.538Z,1022.54
2017-11-01T09:34:36.524Z,1022.51
2017-11-01T09:35:36.509Z,1022.51
2017-11-01T09:36:36.495Z,1022.53
2017-11-01T09:37:36.482Z,1022.53
2017-11-01T09:38:36.468Z,1022.56
2017-11-01T09:39:36.454Z,1022.57
2017-11-01T09:40:36.440Z,1022.56
2017-11-01T09:41:36.426Z,1022.56
2017-11-01T09:42:36.412Z,1022.55
2017-11-01T09:43:36.398Z,1022.53
2017-11-01T09:44:36.385Z,1022.56
2017-11-01T09:45:36.370Z,1022.53
2017-11-01T09:46:36.370Z,1022.51
2017-11-01T09:47:36.343Z,1022.55
2017-11-01T09:48:36.329Z,1022.56
2017-11-01T09:49:36.314Z,1022.54
2017-11-01T09:50:36.302Z,1022.59
2017-11-01T09:51:36.286Z,1022.52
2017-11-01T09:52:36.273Z,1022.55
2017-11-01T09:53:36.260Z,1022.53
2017-11-01T09:54:36.245Z,1022.57
2017-11-01T09:55:36.232Z,1022.53
2017-11-01T09:56:36.219Z,1022.56
2017-11-01T09:57:36.204Z,1022.56
2017-11-01T09:58:36.195Z,1022.58
2017-11-01T09:59:36.175Z,1022.58
2017-11-01T10:00:36.162Z,1022.62
2017-11-01T10:01:36.149Z,1022.67
2017-11-01T10:02:36.135Z,1022.62
2017-11-01T10:03:36.121Z,1022.63
2017-11-01T10:04:36.107Z,1022.64
2017-11-01T10:05:36.093Z,1022.67
2017-11-01T10:06:36.080Z,1022.64
2017-11-01T10:07:36.064Z,1022.65
2017-11-01T10:08:36.052Z,1022.66
2017-11-01T10:09:36.038Z,1022.68
2017-11-01T10:10:36.027Z,1022.64
2017-11-01T10:11:36.012Z,1022.66
2017-11-01T10:12:35.996Z,1022.72
2017-11-01T10:13:35.983Z,1022.72
2017-11-01T10:14:35.970Z,1022.69
2017-11-01T10:15:35.955Z,1022.68
2017-11-01T10:16:35.942Z,1022.71
2017-11-01T10:17:35.957Z,1022.71
2017-11-01T10:18:35.914Z,1022.72
2017-11-01T10:19:35.900Z,1022.70
2017-11-01T10:20:35.887Z,1022.66
2017-11-01T10:21:35.872Z,1022.64
2017-11-01T10:22:35.859Z,1022.60
2017-11-01T10:23:35.845Z,1022.62
2017-11-01T10:24:35.830Z,1022.63
2017-11-01T10:25:35.867Z,1022.63
2017-11-01T10:26:35.803Z,1022.64
2017-11-01T10:27:35.796Z,1022.61
2017-11-01T10:28:35.776Z,1022.61
2017-11-01T10:29:35.762Z,1022.64
2017-11-01T10:30:35.748Z,1022.53
2017-11-01T10:31:35.734Z,1022.55
2017-11-01T10:32:35.720Z,1022.54
2017-11-01T10:33:35.707Z,1022.51
2017-11-01T10:34:35.693Z,1022.49
2017-11-01T10:35:35.679Z,1022.49
2017-11-01T10:36:35.665Z,1022.44
2017-11-01T10:37:35.652Z,1022.44
2017-11-01T10:38:35.638Z,1022.42
2017-11-01T10:39:35.623Z,1022.43
2017-11-01T10:40:35.610Z,1022.43
2017-11-01T10:41:35.596Z,1022.41
2017-11-01T10:42:35.587Z,1022.41
2017-11-01T10:43:35.567Z,1022.41
2017-11-01T10:44:35.560Z,1022.35
2017-11-01T10:45:35.541Z,1022.40
2017-11-01T10:46:35.528Z,1022.38
2017-11-01T10:47:35.513Z,1022.36
2017-11-01T10:48:35.500Z,1022.33
2017-11-01T10:49:35.486Z,1022.31
2017-11-01T10:50:35.472Z,1022.33
2017-11-01T10:51:35.458Z,1022.25
2017-11-01T10:52:35.445Z,1022.22
2017-11-01T10:53:35.432Z,1022.20
2017-11-01T10:54:35.417Z,1022.18
2017-11-01T10:55:35.554Z,1022.14
2017-11-01T10:56:35.391Z,1022.14
2017-11-01T10:57:35.377Z,1022.14
2017-11-01T10:58:35.367Z,1022.13
2017-11-01T10:59:35.348Z,1022.13
2017-11-01T11:00:35.335Z,1022.11
2017-11-01T11:01:35.322Z,1022.09
2017-11-01T11:02:35.307Z,1022.08
2017-11-01T11:03:35.293Z,1022.09
2017-11-01T11:04:35.280Z,1022.10
2017-11-01T11:05:35.315Z,1022.09
2017-11-01T11:06:35.253Z,1022.12
2017-11-01T11:07:35.239Z,1022.10
2017-11-01T11:08:35.226Z,1022.09
2017-11-01T11:09:35.212Z,1022.10
2017-11-01T11:10:35.199Z,1022.09
2017-11-01T11:11:35.185Z,1022.10
2017-11-01T11:12:35.172Z,1022.12
2017-11-01T11:13:35.158Z,1022.04
2017-11-01T11:14:35.144Z,1022.02
2017-11-01T11:15:35.131Z,1021.99
2017-11-01T11:16:35.118Z,1021.98
2017-11-01T11:17:35.105Z,1021.92
2017-11-01T11:18:35.092Z,1021.97
2017-11-01T11:19:35.078Z,1021.96
2017-11-01T11:20:35.065Z,1021.98
2017-11-01T11:21:35.052Z,1021.98
2017-11-01T11:22:35.039Z,1021.95
2017-11-01T11:23:35.026Z,1021.91
2017-11-01T11:24:35.013Z,1021.90
2017-11-01T11:25:35.000Z,1021.90
2017-11-01T11:26:34.987Z,1021.83
2017-11-01T11:27:34.973Z,1021.86
2017-11-01T11:28:34.961Z,1021.88
2017-11-01T11:29:34.949Z,1021.84
2017-11-01T11:30:34.936Z,1021.84
2017-11-01T11:31:34.923Z,1021.86
2017-11-01T11:32:34.909Z,1021.83
2017-11-01T11:33:34.900Z,1021.82
2017-11-01T11:34:34.884Z,1021.82
2017-11-01T11:35:34.875Z,1021.76
2017-11-01T11:36:34.857Z,1021.78
2017-11-01T11:37:34.844Z,1021.76
2017-11-01T11:38:34.834Z,1021.75
2017-11-01T11:39:34.820Z,1021.75
2017-11-01T11:40:34.808Z,1021.70
2017-11-01T11:41:34.795Z,1021.66
2017-11-01T11:42:34.783Z,1021.62
2017-11-01T11:43:34.769Z,1021.61
2017-11-01T11:44:34.756Z,1021.56
2017-11-01T11:45:34.744Z,1021.62
2017-11-01T11:46:34.746Z,1021.62
2017-11-01T11:47:34.719Z,1021.60
2017-11-01T11:48:34.706Z,1021.54
2017-11-01T11:49:34.694Z,1021.51
2017-11-01T11:50:34.681Z,1021.51
2017-11-01T11:51:34.668Z,1021.58
2017-11-01T11:52:34.656Z,1021.59
2017-11-01T11:53:34.644Z,1021.62
2017-11-01T11:54:34.633Z,1021.61
2017-11-01T11:55:34.619Z,1021.64
2017-11-01T11:56:34.606Z,1021.65
2017-11-01T11:57:34.595Z,1021.63
2017-11-01T11:58:34.584Z,1021.64
2017-11-01T11:59:34.571Z,1021.64
2017-11-01T12:00:34.558Z,1021.62
2017-11-01T12:01:34.553Z,1021.60
2017-11-01T12:02:34.535Z,1021.55
2017-11-01T12:03:34.522Z,1021.58
2017-11-01T12:04:34.511Z,1021.55
2017-11-01T12:05:34.500Z,1021.51